Time;durP1;ratioP1;P1;durP2;ratioP2;P2;SDS_P1;SDS_P2;PMS_P1;PMS_P2;Temp;Humidity;BMP_temperature;BMP_pressure;BME280_temperature;BME280_humidity;BME280_pressure;Samples;Min_cycle;Max_cycle;Signal;HPM_P1;HPM_P2
2021/12/07 00:01:12;;;;;;;47.22;28.25;;;;;;;0.29;62.60;99831.13;5106250;28;20220;-65
2021/12/07 00:03:39;;;;;;;53.05;29.55;;;;;;;0.35;62.63;99826.56;5107204;28;20083;-67
2021/12/07 00:06:08;;;;;;;48.95;27.40;;;;;;;0.31;62.57;99832.78;5106077;28;20067;-65
2021/12/07 00:08:36;;;;;;;52.33;30.33;;;;;;;0.35;62.55;99841.31;5106301;28;20058;-65
2021/12/07 00:11:04;;;;;;;44.40;28.00;;;;;;;0.31;62.65;99827.59;5106661;28;20583;-65
2021/12/07 00:13:36;;;;;;;48.70;28.80;;;;;;;0.26;62.45;99829.50;5106151;28;20086;-68
2021/12/07 00:16:03;;;;;;;49.50;29.75;;;;;;;0.24;62.38;99838.28;5106479;28;20404;-67
2021/12/07 00:18:30;;;;;;;42.00;23.40;;;;;;;0.18;62.58;99837.59;5107207;28;20097;-66
2021/12/07 00:20:57;;;;;;;39.42;20.33;;;;;;;0.27;62.27;99835.53;5105587;28;20067;-66
2021/12/07 00:23:24;;;;;;;38.65;23.15;;;;;;;0.26;62.32;99846.84;5104758;28;20089;-67
2021/12/07 00:25:51;;;;;;;41.38;24.65;;;;;;;0.32;62.06;99846.63;5107160;28;20126;-67
2021/12/07 00:28:22;;;;;;;41.80;25.00;;;;;;;0.36;61.92;99848.19;5105044;28;20136;-66
2021/12/07 00:30:51;;;;;;;39.65;25.23;;;;;;;0.31;62.11;99850.13;5106405;28;20056;-67
2021/12/07 00:33:33;;;;;;;40.47;24.30;;;;;;;0.35;61.80;99851.72;5107707;28;20104;-66
2021/12/07 00:36:00;;;;;;;30.42;13.35;;;;;;;0.43;61.62;99848.81;5105962;28;20052;-66
2021/12/07 00:38:29;;;;;;;36.22;21.23;;;;;;;0.44;61.58;99842.72;5105969;28;20062;-67
2021/12/07 00:40:58;;;;;;;35.80;21.95;;;;;;;0.45;61.82;99854.81;5105216;28;20062;-67
2021/12/07 00:43:28;;;;;;;34.35;21.25;;;;;;;0.38;61.34;99851.59;5107156;28;20572;-67
2021/12/07 00:45:57;;;;;;;42.42;27.23;;;;;;;0.25;61.51;99850.34;5106592;28;20496;-67
2021/12/07 00:48:26;;;;;;;52.83;32.10;;;;;;;0.05;61.81;99851.91;5106726;28;20054;-66
2021/12/07 00:50:54;;;;;;;46.72;28.35;;;;;;;-0.03;62.21;99857.38;5106938;28;20134;-67
2021/12/07 00:53:22;;;;;;;47.67;30.00;;;;;;;-0.09;62.47;99855.00;5104813;28;20119;-66
2021/12/07 00:55:52;;;;;;;47.70;31.15;;;;;;;-0.10;62.29;99855.06;5106118;28;20114;-66
2021/12/07 00:58:23;;;;;;;41.72;23.20;;;;;;;-0.10;62.47;99858.50;5106216;28;20039;-65
2021/12/07 01:00:53;;;;;;;37.20;20.15;;;;;;;-0.14;62.19;99864.69;5106439;28;20055;-66
2021/12/07 01:03:21;;;;;;;47.72;26.13;;;;;;;-0.09;62.21;99861.91;5106469;28;20073;-67
2021/12/07 01:05:51;;;;;;;48.75;31.70;;;;;;;-0.15;62.37;99857.78;5106165;28;20050;-64
2021/12/07 01:08:47;;;;;;;53.67;31.50;;;;;;;-0.33;62.68;99868.81;5106598;28;20340;-67
2021/12/07 01:24:58;;;;;;;48.72;29.27;;;;;;;-0.21;62.35;99877.03;5070512;28;20055;-65
2021/12/07 01:27:25;;;;;;;39.42;21.48;;;;;;;-0.13;62.50;99881.94;5106276;28;20054;-66
2021/12/07 01:30:03;;;;;;;47.50;21.85;;;;;;;0.01;62.33;99886.66;5105969;28;20424;-66
2021/12/07 01:32:50;;;;;;;42.80;21.58;;;;;;;0.10;62.28;99883.75;5085281;28;20557;-66
2021/12/07 01:35:51;;;;;;;37.83;17.95;;;;;;;0.14;62.00;99882.72;5085618;28;20653;-67
2021/12/07 01:38:30;;;;;;;41.85;22.30;;;;;;;0.03;61.77;99890.06;5085706;28;20047;-68
2021/12/07 01:41:08;;;;;;;46.80;24.73;;;;;;;0.03;62.16;99892.66;5086778;28;20480;-70
2021/12/07 01:44:42;;;;;;;29.65;14.10;;;;;;;0.15;61.90;99892.22;5085930;28;20048;-67
2021/12/07 01:53:08;;;;;;;57.17;31.30;;;;;;;0.06;61.67;99876.97;4980933;28;20716;-67
2021/12/07 02:01:05;;;;;;;52.17;26.63;;;;;;;0.18;61.63;99873.94;4982684;28;20057;-67
2021/12/07 02:03:32;;;;;;;52.00;26.95;;;;;;;0.08;61.62;99869.97;4982460;28;20061;-67
2021/12/07 02:06:00;;;;;;;34.67;16.70;;;;;;;0.11;61.80;99875.06;4982801;28;20061;-65
2021/12/07 02:08:27;;;;;;;35.13;16.67;;;;;;;0.15;61.54;99870.63;4983157;28;20048;-67
2021/12/07 02:10:59;;;;;;;33.88;13.73;;;;;;;0.18;61.58;99863.56;4982871;28;20852;-65
2021/12/07 02:16:11;;;;;;;53.47;31.25;;;;;;;0.12;61.86;99873.31;4982081;28;20193;-65
2021/12/07 02:18:38;;;;;;;44.60;28.23;;;;;;;-0.08;62.18;99881.81;4982791;28;20054;-66
2021/12/07 02:21:24;;;;;;;58.22;33.55;;;;;;;-0.14;62.39;99884.63;4982614;28;20133;-66
2021/12/07 02:23:52;;;;;;;51.00;26.73;;;;;;;-0.11;61.94;99881.91;4981276;28;20062;-66
2021/12/07 02:26:20;;;;;;;51.58;30.45;;;;;;;-0.14;62.25;99889.81;4990097;28;20049;-66
2021/12/07 02:28:49;;;;;;;51.72;28.05;;;;;;;-0.21;62.21;99889.16;5045806;28;20084;-64
2021/12/07 02:31:16;;;;;;;58.33;29.75;;;;;;;-0.18;62.33;99878.69;5095043;28;20130;-66
2021/12/07 02:33:44;;;;;;;58.67;29.30;;;;;;;-0.11;62.43;99874.13;5105223;28;20446;-66
2021/12/07 02:36:11;;;;;;;50.22;30.25;;;;;;;-0.21;62.49;99865.81;5104333;28;20578;-66
2021/12/07 02:38:39;;;;;;;55.78;28.73;;;;;;;-0.12;62.75;99862.06;5105212;28;20050;-68
2021/12/07 02:41:07;;;;;;;64.30;35.78;;;;;;;-0.13;62.48;99856.00;5105687;28;20047;-67
2021/12/07 02:43:35;;;;;;;59.17;33.03;;;;;;;-0.14;62.58;99856.06;5108333;28;20047;-66
2021/12/07 02:46:02;;;;;;;51.80;29.30;;;;;;;-0.15;62.65;99864.75;5109221;28;20055;-67
2021/12/07 02:48:29;;;;;;;60.65;34.22;;;;;;;-0.14;62.48;99864.69;5108893;28;20122;-66
2021/12/07 02:50:56;;;;;;;55.58;30.75;;;;;;;-0.12;62.63;99867.25;5108710;28;20044;-67
2021/12/07 02:53:26;;;;;;;51.50;26.50;;;;;;;-0.10;62.49;99868.03;5107504;28;20043;-66
2021/12/07 02:55:56;;;;;;;49.67;27.80;;;;;;;-0.07;62.47;99855.78;5110472;28;20047;-65
2021/12/07 02:58:23;;;;;;;55.22;32.47;;;;;;;-0.04;62.63;99865.22;5110397;28;20054;-67
2021/12/07 03:00:58;;;;;;;55.05;32.35;;;;;;;-0.09;62.65;99867.13;5108853;28;20055;-67
2021/12/07 03:03:27;;;;;;;54.83;29.40;;;;;;;-0.05;62.55;99860.94;5108737;28;20048;-66
2021/12/07 03:06:05;;;;;;;58.03;30.30;;;;;;;-0.05;62.51;99859.19;5109486;28;20059;-65
2021/12/07 03:28:00;;;;;;;58.00;33.40;;;;;;;-0.07;62.89;99849.75;5024362;28;20123;-67
2021/12/07 03:30:28;;;;;;;62.70;32.50;;;;;;;-0.09;62.73;99851.53;5024887;28;20064;-68
2021/12/07 03:32:55;;;;;;;51.08;29.95;;;;;;;0.01;62.76;99850.31;5024485;28;20049;-68
2021/12/07 03:35:22;;;;;;;31.23;16.38;;;;;;;0.14;62.68;99851.56;5025708;28;20595;-68
2021/12/07 03:37:49;;;;;;;36.17;16.55;;;;;;;0.25;62.31;99845.97;5024783;28;20052;-66
2021/12/07 03:40:16;;;;;;;34.47;13.80;;;;;;;0.27;62.04;99853.72;5024419;28;20041;-64
2021/12/07 03:42:43;;;;;;;28.75;15.98;;;;;;;0.30;61.99;99858.81;5025418;28;20053;-67
2021/12/07 03:45:12;;;;;;;31.40;14.02;;;;;;;0.36;61.97;99850.78;5025511;28;20169;-67
2021/12/07 03:47:39;;;;;;;31.40;14.52;;;;;;;0.33;61.96;99853.50;5024243;28;20658;-68
2021/12/07 03:50:09;;;;;;;30.33;16.45;;;;;;;0.34;62.02;99843.06;5025047;28;20604;-67
2021/12/07 03:52:37;;;;;;;29.20;14.07;;;;;;;0.32;62.25;99837.06;4990033;28;20698;-66
2021/12/07 03:55:07;;;;;;;33.65;15.77;;;;;;;0.30;62.10;99848.44;5025337;28;20049;-67
2021/12/07 03:57:34;;;;;;;31.95;14.90;;;;;;;0.28;62.30;99848.47;5024767;28;20045;-67
2021/12/07 04:00:01;;;;;;;22.35;13.50;;;;;;;0.24;62.26;99853.84;5024283;28;20051;-66
2021/12/07 04:02:29;;;;;;;29.60;15.40;;;;;;;0.16;62.31;99861.91;5024685;28;20064;-66
2021/12/07 04:05:01;;;;;;;25.52;14.25;;;;;;;0.16;62.46;99865.38;5076941;28;20369;-66
2021/12/07 04:07:28;;;;;;;30.30;13.38;;;;;;;0.15;62.45;99868.03;5107232;28;20047;-67
2021/12/07 04:09:55;;;;;;;30.65;16.83;;;;;;;0.17;62.30;99869.66;5107549;28;20049;-66
2021/12/07 04:12:22;;;;;;;32.65;16.55;;;;;;;0.17;62.43;99874.00;5107700;28;20259;-67
2021/12/07 04:14:49;;;;;;;28.42;15.05;;;;;;;0.18;62.46;99881.75;5106330;28;20426;-64
2021/12/07 04:17:18;;;;;;;29.40;13.50;;;;;;;0.22;62.48;99884.22;5107431;28;20546;-67
2021/12/07 04:19:46;;;;;;;32.28;14.77;;;;;;;0.23;62.23;99883.31;5108209;28;20054;-66
2021/12/07 04:22:13;;;;;;;30.95;14.73;;;;;;;0.23;62.32;99884.16;5105093;28;20096;-66
2021/12/07 04:24:40;;;;;;;34.80;16.17;;;;;;;0.24;62.22;99887.63;5107200;28;20048;-65
2021/12/07 04:27:07;;;;;;;35.78;17.17;;;;;;;0.25;62.35;99887.53;5087602;28;20516;-65
2021/12/07 04:29:34;;;;;;;28.92;15.15;;;;;;;0.25;62.27;99886.69;5086364;28;20054;-67
2021/12/07 04:32:02;;;;;;;29.33;15.95;;;;;;;0.31;62.07;99889.09;5087143;28;20102;-67
2021/12/07 04:34:29;;;;;;;28.63;14.13;;;;;;;0.40;62.16;99886.16;5088065;28;20054;-67
2021/12/07 04:36:57;;;;;;;36.80;17.77;;;;;;;0.41;61.84;99895.63;5086580;28;20048;-65
2021/12/07 04:39:24;;;;;;;30.85;15.13;;;;;;;0.39;61.97;99889.66;5087366;28;20040;-67
2021/12/07 04:41:52;;;;;;;31.13;17.25;;;;;;;0.36;61.87;99894.94;5087960;28;20052;-67
2021/12/07 04:44:21;;;;;;;40.50;14.10;;;;;;;0.32;62.18;99889.00;5086711;28;20051;-68
2021/12/07 04:46:59;;;;;;;36.55;20.02;;;;;;;0.32;62.10;99886.41;5087640;28;20527;-68
2021/12/07 04:49:54;;;;;;;25.85;15.70;;;;;;;0.28;62.00;99891.78;5086636;28;20056;-66
2021/12/07 04:57:53;;;;;;;31.00;13.52;;;;;;;0.16;62.10;99875.75;5087512;28;20519;-66
2021/12/07 05:00:24;;;;;;;29.92;15.25;;;;;;;0.15;62.43;99875.81;5088783;28;20135;-68
2021/12/07 05:02:57;;;;;;;32.63;14.02;;;;;;;0.14;62.17;99879.28;5089266;28;20430;-68
2021/12/07 05:05:30;;;;;;;29.10;14.45;;;;;;;0.12;62.22;99884.53;5090946;28;20047;-68
2021/12/07 05:08:03;;;;;;;24.88;13.30;;;;;;;0.10;62.43;99881.16;5095529;28;20044;-67
2021/12/07 05:10:34;;;;;;;32.97;15.73;;;;;;;0.07;62.57;99889.03;5094051;28;20135;-66
2021/12/07 05:16:07;;;;;;;30.92;15.20;;;;;;;0.05;62.29;99905.59;5029736;28;20053;-67
2021/12/07 05:18:53;;;;;;;28.25;14.75;;;;;;;0.08;62.31;99903.72;5030660;28;20050;-65
2021/12/07 05:24:11;;;;;;;30.27;11.70;;;;;;;0.22;62.16;99898.06;5038517;28;20171;-66
2021/12/07 05:37:51;;;;;;;37.65;14.23;;;;;;;0.18;62.11;99910.31;5043916;28;20510;-66
2021/12/07 05:40:22;;;;;;;27.38;12.00;;;;;;;0.15;62.25;99912.16;5043712;28;20072;-67
2021/12/07 05:42:50;;;;;;;24.00;12.90;;;;;;;0.15;62.11;99907.81;5042836;28;20098;-68
2021/12/07 05:45:19;;;;;;;31.60;14.82;;;;;;;0.12;62.26;99912.25;5041462;28;20068;-68
2021/12/07 05:47:48;;;;;;;37.78;14.80;;;;;;;0.16;62.26;99913.84;5040942;28;20055;-65
2021/12/07 05:50:18;;;;;;;22.58;10.57;;;;;;;0.19;62.22;99906.78;5042009;28;20056;-66
2021/12/07 05:52:45;;;;;;;31.50;13.43;;;;;;;0.22;62.12;99897.19;5066769;28;20050;-65
2021/12/07 05:55:12;;;;;;;32.75;14.00;;;;;;;0.27;62.14;99905.66;5083898;28;20091;-68
2021/12/07 05:57:40;;;;;;;30.30;15.02;;;;;;;0.24;62.12;99900.59;5083360;28;20496;-66
2021/12/07 06:00:13;;;;;;;35.40;14.60;;;;;;;0.26;62.30;99899.63;5084420;28;20051;-67
2021/12/07 06:02:41;;;;;;;36.10;14.52;;;;;;;0.25;62.19;99904.88;5069786;28;20081;-66
2021/12/07 06:05:08;;;;;;;37.30;14.57;;;;;;;0.24;62.22;99900.59;5063210;28;20070;-65
2021/12/07 06:07:35;;;;;;;27.70;13.77;;;;;;;0.25;62.33;99910.91;5063522;28;20139;-66
2021/12/07 06:10:03;;;;;;;38.13;16.55;;;;;;;0.24;62.22;99904.03;5062628;28;20052;-69
2021/12/07 06:12:29;;;;;;;34.17;14.52;;;;;;;0.26;62.42;99898.81;5062851;28;20128;-66
2021/12/07 06:14:58;;;;;;;38.50;17.45;;;;;;;0.26;62.11;99901.41;5063999;28;20055;-70
2021/12/07 06:17:25;;;;;;;37.53;15.73;;;;;;;0.25;62.30;99902.28;5064963;28;20094;-68
2021/12/07 06:19:52;;;;;;;30.63;14.70;;;;;;;0.26;62.00;99904.84;5065883;28;20040;-67
2021/12/07 06:22:19;;;;;;;41.05;15.73;;;;;;;0.25;62.13;99903.13;5072550;28;20067;-68
2021/12/07 06:24:46;;;;;;;36.38;15.93;;;;;;;0.26;62.34;99906.59;5070817;28;20050;-69
2021/12/07 06:27:13;;;;;;;36.10;16.33;;;;;;;0.26;62.32;99904.84;5063360;28;20079;-69
2021/12/07 06:29:40;;;;;;;32.78;17.65;;;;;;;0.23;62.07;99899.75;5063391;28;20053;-68
2021/12/07 06:32:10;;;;;;;30.55;15.35;;;;;;;0.34;62.16;99908.03;5082048;28;20040;-68
2021/12/07 06:34:38;;;;;;;33.05;14.98;;;;;;;0.40;62.01;99900.88;5083630;28;20091;-68
2021/12/07 06:37:06;;;;;;;34.03;12.98;;;;;;;0.37;61.86;99907.03;5083250;28;20058;-68
2021/12/07 06:39:33;;;;;;;21.55;12.07;;;;;;;0.38;62.14;99908.75;5083773;28;20135;-67
2021/12/07 06:42:00;;;;;;;36.22;16.58;;;;;;;0.37;61.89;99901.84;5085411;28;20444;-67
2021/12/07 06:44:27;;;;;;;37.78;16.08;;;;;;;0.47;61.97;99908.41;5085881;28;20061;-70
2021/12/07 06:46:55;;;;;;;30.38;14.40;;;;;;;0.50;61.97;99915.25;5085850;28;20086;-68
2021/12/07 06:49:23;;;;;;;36.67;15.30;;;;;;;0.47;61.77;99905.81;5089338;28;20665;-67
2021/12/07 06:51:52;;;;;;;38.05;17.90;;;;;;;0.45;61.92;99904.16;5101030;28;20054;-67
2021/12/07 06:54:19;;;;;;;29.25;14.82;;;;;;;0.45;61.99;99910.22;5102068;28;20075;-67
2021/12/07 06:56:46;;;;;;;28.50;14.45;;;;;;;0.43;62.04;99911.16;5106725;28;20514;-65
2021/12/07 06:59:14;;;;;;;30.30;14.57;;;;;;;0.43;62.04;99911.16;5103760;28;20719;-66
2021/12/07 07:01:41;;;;;;;32.15;14.18;;;;;;;0.40;61.97;99912.16;5102687;28;20411;-66
2021/12/07 07:04:08;;;;;;;31.73;16.70;;;;;;;0.37;62.00;99918.28;5089648;28;20048;-67
2021/12/07 07:06:39;;;;;;;32.47;15.30;;;;;;;0.40;62.07;99921.66;5092565;28;20047;-68
2021/12/07 07:09:07;;;;;;;32.78;16.23;;;;;;;0.43;62.12;99921.56;5102766;28;20051;-67
2021/12/07 07:11:34;;;;;;;34.53;14.63;;;;;;;0.46;61.86;99924.06;5101833;28;20047;-68
2021/12/07 07:14:02;;;;;;;29.98;14.70;;;;;;;0.47;62.05;99923.13;5102508;28;20048;-67
2021/12/07 07:16:30;;;;;;;40.00;16.13;;;;;;;0.49;61.86;99929.16;5102361;28;20054;-67
2021/12/07 07:18:57;;;;;;;29.77;13.32;;;;;;;0.54;62.17;99929.81;5101788;28;20438;-67
2021/12/07 07:21:24;;;;;;;31.02;14.30;;;;;;;0.62;61.83;99930.38;5103200;28;20509;-66
2021/12/07 07:23:54;;;;;;;29.50;14.00;;;;;;;0.68;61.76;99937.09;5101014;28;20078;-66
2021/12/07 07:26:21;;;;;;;26.45;14.40;;;;;;;0.74;61.61;99942.09;5100927;28;20043;-67
2021/12/07 07:28:48;;;;;;;36.88;15.02;;;;;;;0.77;61.30;99947.16;5104678;28;20069;-70
2021/12/07 07:31:16;;;;;;;27.80;12.75;;;;;;;0.69;61.55;99949.22;5103082;28;20524;-69
2021/12/07 07:33:43;;;;;;;27.98;12.38;;;;;;;0.67;61.55;99951.03;5067590;28;20058;-68
2021/12/07 07:36:10;;;;;;;37.67;12.18;;;;;;;0.68;61.58;99944.91;5106547;28;20046;-68
2021/12/07 07:38:37;;;;;;;38.25;15.68;;;;;;;0.67;61.84;99951.03;5104694;28;20046;-67
2021/12/07 07:41:06;;;;;;;28.27;12.82;;;;;;;0.66;61.69;99939.75;5102524;28;20582;-67
2021/12/07 07:43:33;;;;;;;27.98;11.88;;;;;;;0.67;61.65;99951.88;5103930;28;20123;-67
2021/12/07 07:46:00;;;;;;;30.23;14.73;;;;;;;0.66;61.61;99955.34;5103815;28;20048;-67
2021/12/07 07:48:27;;;;;;;25.95;12.75;;;;;;;0.72;61.54;99952.56;5102686;28;20051;-65
2021/12/07 07:50:54;;;;;;;35.75;15.15;;;;;;;0.76;61.32;99959.31;5051357;28;20047;-66
2021/12/07 07:53:23;;;;;;;28.45;12.77;;;;;;;0.81;61.30;99963.50;5100158;28;20048;-65
2021/12/07 07:55:50;;;;;;;33.38;12.95;;;;;;;0.80;61.27;99962.66;5102436;28;20408;-67
2021/12/07 07:58:19;;;;;;;26.38;13.13;;;;;;;0.78;61.36;99963.63;5104232;28;20083;-68
2021/12/07 08:00:47;;;;;;;30.83;13.35;;;;;;;0.85;61.33;99965.09;5103024;28;20044;-66
2021/12/07 08:03:14;;;;;;;33.55;13.38;;;;;;;0.90;61.21;99968.34;5102604;28;20058;-67
2021/12/07 08:05:42;;;;;;;31.35;15.05;;;;;;;0.95;61.13;99977.72;5103417;28;20048;-71
2021/12/07 08:08:09;;;;;;;29.63;12.77;;;;;;;0.97;61.10;99972.41;5084145;28;20051;-67
2021/12/07 08:10:36;;;;;;;37.30;15.10;;;;;;;0.95;61.16;99975.09;5101235;28;20403;-68
2021/12/07 08:13:06;;;;;;;29.27;13.60;;;;;;;0.98;61.14;99975.91;5102596;28;20043;-67
2021/12/07 08:15:39;;;;;;;37.33;15.10;;;;;;;0.93;61.20;99989.88;5103033;28;20048;-66
2021/12/07 08:18:06;;;;;;;36.03;17.77;;;;;;;0.96;61.11;99983.75;5103408;28;20047;-67
2021/12/07 08:20:34;;;;;;;26.85;15.00;;;;;;;1.03;61.14;99981.78;5102495;28;20652;-66
2021/12/07 08:23:04;;;;;;;36.25;15.20;;;;;;;1.07;60.85;99991.16;5099131;28;20039;-68
2021/12/07 08:25:32;;;;;;;31.35;14.23;;;;;;;1.11;60.92;99987.53;5103263;28;20047;-65
2021/12/07 08:27:59;;;;;;;28.20;12.95;;;;;;;1.16;61.03;99984.75;5083452;28;20050;-66
2021/12/07 08:30:26;;;;;;;33.25;14.88;;;;;;;1.28;60.88;99985.13;5101144;28;20159;-66
2021/12/07 08:32:55;;;;;;;34.28;13.82;;;;;;;1.32;60.44;99989.31;5103391;28;20068;-65
2021/12/07 08:35:23;;;;;;;34.15;15.50;;;;;;;1.34;60.60;99994.44;5102639;28;20047;-66
2021/12/07 08:37:51;;;;;;;31.90;14.85;;;;;;;1.33;60.30;99993.63;5103075;28;20169;-66
2021/12/07 08:40:20;;;;;;;38.28;16.73;;;;;;;1.29;60.77;99994.63;5102805;28;20050;-66
2021/12/07 08:42:48;;;;;;;30.52;16.52;;;;;;;1.27;60.56;99993.81;5102613;28;20041;-67
2021/12/07 08:45:15;;;;;;;29.73;14.15;;;;;;;1.32;60.59;100006.69;5101027;28;20531;-65
2021/12/07 08:47:42;;;;;;;21.05;11.77;;;;;;;1.30;60.77;100006.72;5100621;28;20047;-67
2021/12/07 08:50:15;;;;;;;33.10;15.70;;;;;;;1.37;60.66;100014.28;5083207;28;20048;-66
2021/12/07 08:52:42;;;;;;;32.63;14.93;;;;;;;1.46;60.49;100019.13;5099376;28;20047;-68
2021/12/07 09:00:39;;;;;;;26.17;11.77;;;;;;;1.48;60.50;100025.16;5102112;28;20427;-67
2021/12/07 09:03:06;;;;;;;29.20;13.05;;;;;;;1.49;60.45;100029.44;5101451;28;20083;-68
2021/12/07 09:05:35;;;;;;;26.40;12.93;;;;;;;1.53;60.35;100021.47;5101479;28;20047;-66
2021/12/07 09:08:02;;;;;;;26.48;13.98;;;;;;;1.58;60.31;100016.06;5101973;28;20122;-67
2021/12/07 09:10:29;;;;;;;35.88;15.45;;;;;;;1.65;60.06;100009.69;5101870;28;20062;-67
2021/12/07 09:12:56;;;;;;;29.77;15.27;;;;;;;1.69;59.86;100011.31;5101765;28;20049;-67
2021/12/07 09:15:23;;;;;;;36.47;15.07;;;;;;;1.69;59.89;100010.44;5101335;28;20043;-67
2021/12/07 09:17:50;;;;;;;31.98;14.85;;;;;;;1.69;60.05;100006.09;5101218;28;20052;-67
2021/12/07 09:20:17;;;;;;;41.00;16.90;;;;;;;1.77;59.68;100012.75;5100535;28;20043;-67
2021/12/07 09:22:48;;;;;;;36.00;17.15;;;;;;;1.89;59.65;100009.63;5099725;28;20043;-68
2021/12/07 09:25:16;;;;;;;36.95;18.95;;;;;;;1.94;59.19;100009.44;5099806;28;20561;-69
2021/12/07 09:27:43;;;;;;;33.17;16.88;;;;;;;1.87;59.54;100003.63;5099547;28;20047;-68
2021/12/07 09:30:15;;;;;;;30.35;15.15;;;;;;;1.81;59.63;100016.91;5101067;28;20050;-69
2021/12/07 09:32:42;;;;;;;32.20;16.00;;;;;;;1.81;59.72;100014.31;5078688;28;20050;-66
2021/12/07 09:35:10;;;;;;;29.08;14.18;;;;;;;1.81;59.77;100012.56;5078122;28;20046;-67
2021/12/07 09:37:38;;;;;;;27.90;14.85;;;;;;;1.69;59.77;100007.81;5078745;28;20123;-67
2021/12/07 09:40:09;;;;;;;33.03;14.38;;;;;;;1.75;59.68;100010.19;5079059;28;20048;-68
2021/12/07 09:42:36;;;;;;;33.15;13.35;;;;;;;1.79;59.61;100005.72;5079385;28;20055;-68
2021/12/07 09:45:04;;;;;;;27.58;13.00;;;;;;;1.76;59.60;100003.22;5079921;28;20050;-67
2021/12/07 09:47:31;;;;;;;37.08;15.05;;;;;;;1.77;59.28;99997.13;5078404;28;20122;-68
2021/12/07 09:49:58;;;;;;;28.08;12.65;;;;;;;1.72;59.73;99992.09;5080596;28;20161;-67
2021/12/07 09:52:26;;;;;;;25.77;11.68;;;;;;;1.69;59.58;99992.22;5077754;28;20048;-67
2021/12/07 09:54:53;;;;;;;27.20;14.27;;;;;;;1.69;59.83;99989.59;5077966;28;20452;-67
2021/12/07 09:57:23;;;;;;;36.35;15.60;;;;;;;1.72;59.67;99992.09;5079130;28;20044;-68
2021/12/07 09:59:50;;;;;;;31.95;14.40;;;;;;;1.75;59.57;99991.09;5079162;28;20143;-69
2021/12/07 10:02:18;;;;;;;33.17;14.57;;;;;;;1.84;59.49;99983.78;5078616;28;20043;-68
2021/12/07 10:04:45;;;;;;;29.13;13.80;;;;;;;1.90;59.20;99987.91;5078876;28;20579;-68
2021/12/07 10:07:12;;;;;;;32.10;14.38;;;;;;;1.87;59.30;99982.81;5078683;28;20625;-68
2021/12/07 10:09:40;;;;;;;37.33;14.10;;;;;;;1.88;59.28;99990.56;5077392;28;20048;-69
2021/12/07 10:12:08;;;;;;;25.92;12.88;;;;;;;1.93;59.19;99985.19;5079047;28;20109;-65
2021/12/07 10:14:41;;;;;;;44.33;16.15;;;;;;;1.92;58.93;99983.47;5079015;28;20056;-66
2021/12/07 10:17:09;;;;;;;35.75;15.13;;;;;;;1.95;59.16;99985.13;5078721;28;20052;-66
2021/12/07 10:19:41;;;;;;;27.80;14.68;;;;;;;2.08;58.81;99986.28;5079639;28;20112;-68
2021/12/07 10:22:11;;;;;;;30.13;16.58;;;;;;;2.22;58.73;99991.78;5078161;28;20070;-66
2021/12/07 10:24:42;;;;;;;32.30;15.77;;;;;;;2.27;58.72;99986.38;5076106;28;20123;-66
2021/12/07 10:27:09;;;;;;;27.30;13.98;;;;;;;2.30;58.45;99983.63;5079498;28;20714;-66
2021/12/07 10:29:39;;;;;;;35.03;14.98;;;;;;;2.27;58.60;99981.16;5077933;28;20727;-67
2021/12/07 10:32:09;;;;;;;27.92;13.82;;;;;;;2.18;58.62;99978.91;5092505;28;20055;-67
2021/12/07 10:34:41;;;;;;;27.20;14.93;;;;;;;2.10;58.52;99977.47;5097872;28;20059;-67
2021/12/07 10:37:11;;;;;;;30.48;13.68;;;;;;;2.06;58.85;99983.75;5097674;28;20101;-67
2021/12/07 10:39:41;;;;;;;31.85;13.45;;;;;;;2.09;58.72;99978.41;5098318;28;20375;-67
2021/12/07 10:42:12;;;;;;;25.10;12.15;;;;;;;2.18;58.77;99981.53;5098257;28;20143;-67
2021/12/07 10:44:41;;;;;;;26.13;12.80;;;;;;;2.34;58.31;99981.72;5098866;28;20044;-67
2021/12/07 10:47:14;;;;;;;24.20;12.68;;;;;;;2.36;58.19;99985.09;5099842;28;20047;-67
2021/12/07 10:49:43;;;;;;;26.70;12.98;;;;;;;2.25;58.40;99988.16;5098866;28;20043;-66
2021/12/07 10:52:27;;;;;;;32.20;13.18;;;;;;;2.15;58.43;99986.88;5097726;28;20105;-68
2021/12/07 10:55:10;;;;;;;28.85;13.00;;;;;;;2.14;58.43;99987.78;5098709;28;20048;-67
2021/12/07 10:57:39;;;;;;;32.55;13.27;;;;;;;2.23;58.44;99990.00;5045936;28;20048;-66
2021/12/07 11:00:21;;;;;;;24.80;12.32;;;;;;;2.37;58.19;99992.88;5097826;28;20043;-66
2021/12/07 11:02:52;;;;;;;27.95;12.32;;;;;;;2.48;57.70;99988.06;5099764;28;20055;-67
2021/12/07 11:05:21;;;;;;;28.58;14.52;;;;;;;2.47;57.65;99983.75;5102398;28;20047;-68
2021/12/07 11:07:50;;;;;;;27.42;12.65;;;;;;;2.40;57.89;99979.72;5102050;28;20040;-68
2021/12/07 11:10:22;;;;;;;32.42;13.45;;;;;;;2.31;57.89;99974.91;5104092;28;20079;-67
2021/12/07 11:12:58;;;;;;;28.25;14.73;;;;;;;2.19;58.17;99970.22;5102459;28;20050;-67
2021/12/07 11:15:27;;;;;;;30.30;14.63;;;;;;;2.06;58.07;99982.91;5102848;28;20317;-67
2021/12/07 11:17:59;;;;;;;35.50;14.73;;;;;;;2.02;58.32;99979.56;5103536;28;20043;-66
2021/12/07 11:20:26;;;;;;;28.33;14.10;;;;;;;2.02;58.40;99982.19;5101561;28;20135;-67
2021/12/07 11:22:57;;;;;;;33.10;14.32;;;;;;;2.09;57.83;99978.41;5100176;28;20073;-67
2021/12/07 11:25:53;;;;;;;28.20;14.00;;;;;;;2.10;57.86;99989.66;5104096;28;20055;-66
2021/12/07 11:31:17;;;;;;;29.50;15.23;;;;;;;2.09;58.14;99996.66;5102802;28;20058;-68
2021/12/07 11:33:47;;;;;;;34.67;19.38;;;;;;;2.15;58.04;99997.31;5103025;28;20047;-67
2021/12/07 11:36:20;;;;;;;35.28;15.57;;;;;;;2.17;57.95;100000.69;5101689;28;20039;-67
2021/12/07 11:38:48;;;;;;;33.50;14.20;;;;;;;2.20;57.80;100006.63;5102819;28;20808;-67
2021/12/07 11:41:17;;;;;;;32.55;15.45;;;;;;;2.27;57.59;100002.84;5104275;28;20059;-67
2021/12/07 11:43:59;;;;;;;43.25;19.35;;;;;;;2.30;57.61;100007.06;5100857;28;20707;-68
2021/12/07 11:46:29;;;;;;;36.78;16.55;;;;;;;2.29;57.36;100010.59;5097253;28;20134;-69
2021/12/07 11:49:14;;;;;;;40.08;18.02;;;;;;;2.29;57.75;100013.22;5100990;28;20537;-69
2021/12/07 11:51:42;;;;;;;29.33;14.63;;;;;;;2.29;57.47;100001.03;5102282;28;20058;-67
2021/12/07 11:54:11;;;;;;;27.75;12.93;;;;;;;2.14;57.66;100006.84;5101887;28;20067;-67
2021/12/07 11:56:41;;;;;;;23.63;12.95;;;;;;;1.98;58.05;100011.88;5100768;28;20052;-67
2021/12/07 11:59:09;;;;;;;22.40;11.00;;;;;;;1.87;57.92;100007.09;5102689;28;20102;-67
2021/12/07 12:01:36;;;;;;;32.42;13.00;;;;;;;1.89;58.14;100007.03;5104355;28;20043;-66
2021/12/07 12:04:04;;;;;;;24.67;14.02;;;;;;;1.90;58.01;100009.56;5100813;28;20059;-68
2021/12/07 12:06:33;;;;;;;27.73;13.20;;;;;;;1.91;57.99;100013.88;5101257;28;20642;-66
2021/12/07 12:09:00;;;;;;;27.40;14.10;;;;;;;1.93;57.98;99998.19;5102734;28;20044;-66
2021/12/07 12:11:37;;;;;;;29.73;14.27;;;;;;;1.91;57.95;100006.06;5100736;28;20054;-66
2021/12/07 12:14:16;;;;;;;26.00;14.27;;;;;;;1.81;57.81;99994.31;5101971;28;20050;-67
2021/12/07 12:16:52;;;;;;;34.47;17.60;;;;;;;1.80;57.93;100000.47;5102435;28;20089;-67
2021/12/07 12:19:30;;;;;;;22.90;11.98;;;;;;;1.80;57.99;100005.66;5101242;28;20794;-67
2021/12/07 12:22:06;;;;;;;28.63;13.85;;;;;;;1.72;57.96;100007.72;5103150;28;20071;-67
2021/12/07 12:24:44;;;;;;;29.42;15.55;;;;;;;1.71;57.73;100014.69;5100780;28;20048;-67
2021/12/07 12:27:13;;;;;;;25.40;13.68;;;;;;;1.67;57.91;100013.09;5100223;28;20048;-67
2021/12/07 12:29:44;;;;;;;30.33;15.60;;;;;;;1.60;57.92;100013.41;5102544;28;20040;-67
2021/12/07 12:32:11;;;;;;;24.83;13.20;;;;;;;1.52;58.09;100014.56;5101243;28;20047;-67
2021/12/07 12:34:50;;;;;;;30.35;11.88;;;;;;;1.51;57.92;100015.47;5100383;28;20043;-68
2021/12/07 12:37:20;;;;;;;23.77;11.85;;;;;;;1.54;57.92;100006.69;5101878;28;20051;-68
2021/12/07 12:39:55;;;;;;;25.33;11.15;;;;;;;1.55;58.15;100012.72;5100978;28;20048;-66
2021/12/07 12:42:29;;;;;;;25.52;13.43;;;;;;;1.48;57.99;100012.13;5099644;28;20052;-67
2021/12/07 12:45:07;;;;;;;25.42;11.48;;;;;;;1.44;58.40;100008.81;5101537;28;20054;-67
2021/12/07 12:47:35;;;;;;;29.38;13.68;;;;;;;1.43;57.99;99995.84;5099580;28;20044;-67
2021/12/07 12:50:19;;;;;;;36.50;15.63;;;;;;;1.42;58.23;100004.56;5082754;28;20047;-67
2021/12/07 12:52:51;;;;;;;34.80;13.88;;;;;;;1.43;58.21;100008.88;5100457;28;20048;-66